createdAt,value
2023-01-07T00:00:21.481Z,2.92
2023-01-07T00:03:14.001Z,3.00
2023-01-07T00:06:26.984Z,3.33
2023-01-07T00:09:20.570Z,3.37
2023-01-07T00:12:10.202Z,2.85
2023-01-07T00:14:59.863Z,2.90
2023-01-07T00:17:49.311Z,2.90
2023-01-07T00:20:39.000Z,3.17
2023-01-07T00:23:29.739Z,2.80
2023-01-07T00:26:21.471Z,3.17
2023-01-07T00:29:11.998Z,3.40
2023-01-07T00:32:01.958Z,3.53
2023-01-07T00:34:51.437Z,3.08
2023-01-07T00:37:52.890Z,2.85
2023-01-07T00:40:42.314Z,2.75
2023-01-07T00:43:31.808Z,3.05
2023-01-07T00:46:22.361Z,3.20
2023-01-07T00:49:12.080Z,2.88
2023-01-07T00:52:01.537Z,3.15
2023-01-07T00:54:50.909Z,2.95
2023-01-07T00:57:40.284Z,2.90
2023-01-07T01:00:29.818Z,2.70
2023-01-07T01:03:19.099Z,2.90
2023-01-07T01:06:12.810Z,3.08
2023-01-07T01:09:02.567Z,2.53
2023-01-07T01:11:51.873Z,3.05
2023-01-07T01:14:41.338Z,3.00
2023-01-07T01:17:30.785Z,3.13
2023-01-07T01:20:21.158Z,3.25
2023-01-07T01:23:10.621Z,2.83
2023-01-07T01:26:09.552Z,3.10
2023-01-07T01:28:58.868Z,3.30
2023-01-07T01:31:49.676Z,3.22
2023-01-07T01:34:39.465Z,3.28
2023-01-07T01:37:29.065Z,3.53
2023-01-07T01:40:20.068Z,2.90
2023-01-07T01:43:36.032Z,3.30
2023-01-07T01:46:32.316Z,3.03
2023-01-07T01:49:35.999Z,3.03
2023-01-07T01:52:32.234Z,3.55
2023-01-07T01:55:33.465Z,2.92
2023-01-07T01:58:38.844Z,2.77
2023-01-07T02:01:28.975Z,3.25
2023-01-07T02:04:23.461Z,2.80
2023-01-07T02:07:21.957Z,2.80
2023-01-07T02:10:19.562Z,2.92
2023-01-07T02:13:32.882Z,3.67
2023-01-07T02:16:45.327Z,3.25
2023-01-07T02:20:11.029Z,2.75
2023-01-07T02:23:39.382Z,2.85
2023-01-07T02:26:45.754Z,3.08
2023-01-07T02:30:05.383Z,3.00
2023-01-07T02:33:00.460Z,3.13
2023-01-07T02:36:03.596Z,2.80
2023-01-07T02:38:58.236Z,2.80
2023-01-07T02:42:25.720Z,2.92
2023-01-07T02:45:37.407Z,2.55
2023-01-07T02:48:27.882Z,3.00
2023-01-07T02:51:17.909Z,3.00
2023-01-07T02:54:33.588Z,2.90
2023-01-07T02:57:49.254Z,3.13
2023-01-07T03:01:00.203Z,3.22
2023-01-07T03:04:26.773Z,3.53
2023-01-07T03:07:46.577Z,3.08
2023-01-07T03:10:47.500Z,3.20
2023-01-07T03:13:59.921Z,3.17
2023-01-07T03:16:55.829Z,3.15
2023-01-07T03:19:51.066Z,3.20
2023-01-07T03:22:43.066Z,3.00
2023-01-07T03:25:36.626Z,3.28
2023-01-07T03:28:33.643Z,3.17
2023-01-07T03:31:24.104Z,2.90
2023-01-07T03:34:21.175Z,3.42
2023-01-07T03:37:20.037Z,3.22
2023-01-07T03:40:12.107Z,3.20
2023-01-07T03:43:01.958Z,3.47
2023-01-07T03:45:53.823Z,3.33
2023-01-07T03:48:43.230Z,3.65
2023-01-07T03:51:32.825Z,3.42
2023-01-07T03:54:24.856Z,3.30
2023-01-07T03:57:14.214Z,3.30
2023-01-07T04:00:04.420Z,3.45
2023-01-07T04:03:03.141Z,3.00
2023-01-07T04:05:57.785Z,2.90
2023-01-07T04:08:47.461Z,3.00
2023-01-07T04:11:36.946Z,3.47
2023-01-07T04:14:26.500Z,3.10
2023-01-07T04:17:16.019Z,3.10
2023-01-07T04:20:08.813Z,3.50
2023-01-07T04:22:58.752Z,3.13
2023-01-07T04:25:49.338Z,3.22
2023-01-07T04:28:42.731Z,2.90
2023-01-07T04:31:35.621Z,3.72
2023-01-07T04:34:25.739Z,3.00
2023-01-07T04:37:15.444Z,3.65
2023-01-07T04:40:05.187Z,3.20
2023-01-07T04:42:57.604Z,3.45
2023-01-07T04:45:47.719Z,3.33
2023-01-07T04:48:38.894Z,3.55
2023-01-07T04:51:29.361Z,3.53
2023-01-07T04:54:20.335Z,3.70
2023-01-07T04:57:10.886Z,3.40
2023-01-07T05:00:00.603Z,2.97
2023-01-07T05:02:50.749Z,3.00
2023-01-07T05:05:40.250Z,3.45
2023-01-07T05:08:33.573Z,3.30
2023-01-07T05:14:15.919Z,3.65
2023-01-07T05:17:06.045Z,3.08
2023-01-07T05:19:55.537Z,3.35
2023-01-07T05:22:45.011Z,3.58
2023-01-07T05:25:36.428Z,3.60
2023-01-07T05:28:25.846Z,3.17
2023-01-07T05:31:15.418Z,3.28
2023-01-07T05:34:05.540Z,3.60
2023-01-07T05:36:55.334Z,3.72
2023-01-07T05:39:45.307Z,3.17
2023-01-07T05:42:39.915Z,4.00
2023-01-07T05:45:29.641Z,3.30
2023-01-07T05:48:19.247Z,3.35
2023-01-07T05:51:08.802Z,3.20
2023-01-07T05:53:58.422Z,3.22
2023-01-07T05:56:47.852Z,3.28
2023-01-07T05:59:37.341Z,3.30
2023-01-07T06:02:26.865Z,3.30
2023-01-07T06:05:16.313Z,3.30
2023-01-07T06:08:05.980Z,3.30
2023-01-07T06:10:55.993Z,3.63
2023-01-07T06:13:45.574Z,3.25
2023-01-07T06:16:35.028Z,3.30
2023-01-07T06:19:24.306Z,3.20
2023-01-07T06:22:13.692Z,3.15
2023-01-07T06:25:03.101Z,3.33
2023-01-07T06:27:52.675Z,3.10
2023-01-07T06:30:42.473Z,3.30
2023-01-07T06:33:33.379Z,3.22
2023-01-07T06:36:23.101Z,3.30
2023-01-07T06:39:13.912Z,3.40
2023-01-07T06:42:03.622Z,3.25
2023-01-07T06:44:53.291Z,3.15
2023-01-07T06:47:43.112Z,3.40
2023-01-07T06:50:32.541Z,3.30
2023-01-07T06:53:22.242Z,3.17
2023-01-07T06:56:11.864Z,3.60
2023-01-07T06:59:01.218Z,3.38
2023-01-07T07:01:50.857Z,3.33
2023-01-07T07:04:40.380Z,3.38
2023-01-07T07:07:29.780Z,3.55
2023-01-07T07:10:19.176Z,3.60
2023-01-07T07:13:09.420Z,3.50
2023-01-07T07:15:58.864Z,3.67
2023-01-07T07:18:48.694Z,3.78
2023-01-07T07:21:38.037Z,3.35
2023-01-07T07:24:27.560Z,3.40
2023-01-07T07:27:17.370Z,3.45
2023-01-07T07:30:08.054Z,3.28
2023-01-07T07:32:57.517Z,3.50
2023-01-07T07:35:47.127Z,3.65
2023-01-07T07:38:36.718Z,3.85
2023-01-07T07:41:26.081Z,3.28
2023-01-07T07:44:15.477Z,3.50
2023-01-07T07:47:05.304Z,3.33
2023-01-07T07:49:55.103Z,3.60
2023-01-07T07:52:44.569Z,3.47
2023-01-07T07:55:33.881Z,3.45
2023-01-07T07:58:23.547Z,3.20
2023-01-07T08:01:13.073Z,3.33
2023-01-07T08:04:02.492Z,3.50
2023-01-07T08:06:51.796Z,3.58
2023-01-07T08:09:41.391Z,3.33
2023-01-07T08:12:30.943Z,3.20
2023-01-07T08:15:20.664Z,3.70
2023-01-07T08:18:11.721Z,3.50
2023-01-07T08:21:01.186Z,3.45
2023-01-07T08:23:50.493Z,3.20
2023-01-07T08:26:40.030Z,3.40
2023-01-07T08:29:29.307Z,3.33
2023-01-07T08:32:18.702Z,3.22
2023-01-07T08:35:08.666Z,3.33
2023-01-07T08:38:07.337Z,3.40
2023-01-07T08:40:56.716Z,3.25
2023-01-07T08:43:46.168Z,3.28
2023-01-07T08:46:35.493Z,3.40
2023-01-07T08:49:25.001Z,3.30
2023-01-07T08:52:14.431Z,3.60
2023-01-07T08:55:03.831Z,3.47
2023-01-07T08:57:53.844Z,3.45
2023-01-07T09:00:43.330Z,3.50
2023-01-07T09:03:32.875Z,3.70
2023-01-07T09:06:24.500Z,3.45
2023-01-07T09:09:17.474Z,3.28
2023-01-07T09:12:10.688Z,3.72
2023-01-07T09:17:49.140Z,3.33
2023-01-07T09:20:38.493Z,3.33
2023-01-07T09:23:28.023Z,3.22
2023-01-07T09:26:17.421Z,3.35
2023-01-07T09:29:07.046Z,3.30
2023-01-07T09:31:56.494Z,3.20
2023-01-07T09:34:45.973Z,3.40
2023-01-07T09:37:35.421Z,3.67
2023-01-07T09:40:37.670Z,3.47
2023-01-07T09:44:00.947Z,3.13
2023-01-07T09:46:50.341Z,3.53
2023-01-07T09:49:41.283Z,3.50
2023-01-07T09:52:38.256Z,3.38
2023-01-07T09:55:32.718Z,3.45
2023-01-07T09:58:23.036Z,3.33
2023-01-07T10:01:49.248Z,3.35
2023-01-07T10:04:52.684Z,3.38
2023-01-07T10:07:48.607Z,3.25
2023-01-07T10:10:48.167Z,3.28
2023-01-07T10:14:30.144Z,3.25
2023-01-07T10:17:23.040Z,3.83
2023-01-07T10:20:29.995Z,3.50
2023-01-07T10:23:27.008Z,3.47
2023-01-07T10:26:32.297Z,3.17
2023-01-07T10:29:33.857Z,3.30
2023-01-07T10:32:25.711Z,3.05
2023-01-07T10:35:20.219Z,2.95
2023-01-07T10:38:19.938Z,3.00
2023-01-07T10:41:24.042Z,3.20
2023-01-07T10:44:33.363Z,2.90
2023-01-07T10:47:31.457Z,3.33
2023-01-07T10:50:48.483Z,3.10
2023-01-07T10:54:04.222Z,3.20
2023-01-07T10:57:02.370Z,3.20
2023-01-07T10:59:58.806Z,3.05
2023-01-07T11:02:53.969Z,3.10
2023-01-07T11:05:44.055Z,3.05
2023-01-07T11:08:46.051Z,3.10
2023-01-07T11:11:35.382Z,2.92
2023-01-07T11:14:28.843Z,3.13
2023-01-07T11:20:54.087Z,3.25
2023-01-07T11:23:44.793Z,2.95
2023-01-07T11:26:34.343Z,3.30
2023-01-07T11:29:45.879Z,2.90
2023-01-07T11:32:41.917Z,2.90
2023-01-07T11:35:31.292Z,3.30
2023-01-07T11:38:33.597Z,2.78
2023-01-07T11:41:27.088Z,3.20
2023-01-07T11:44:17.907Z,2.80
2023-01-07T11:47:07.208Z,2.85
2023-01-07T11:49:56.558Z,3.05
2023-01-07T11:52:57.199Z,2.88
2023-01-07T11:56:02.950Z,2.75
2023-01-07T11:59:18.931Z,2.88
2023-01-07T12:02:26.050Z,2.92
2023-01-07T12:05:27.348Z,3.00
2023-01-07T12:08:24.104Z,2.85
2023-01-07T12:11:15.407Z,2.75
2023-01-07T12:14:29.621Z,2.70
2023-01-07T12:17:23.573Z,2.60
2023-01-07T12:20:36.947Z,2.60
2023-01-07T12:23:35.495Z,2.75
2023-01-07T12:26:30.995Z,2.80
2023-01-07T12:29:20.163Z,2.60
2023-01-07T12:32:39.431Z,2.60
2023-01-07T12:35:34.003Z,2.53
2023-01-07T12:38:28.968Z,2.63
2023-01-07T12:41:26.723Z,2.65
2023-01-07T12:44:22.552Z,2.60
2023-01-07T12:47:30.809Z,2.70
2023-01-07T12:50:40.208Z,2.50
2023-01-07T12:54:02.046Z,2.50
2023-01-07T12:57:01.074Z,2.55
2023-01-07T13:00:13.370Z,2.70
2023-01-07T13:03:20.083Z,2.53
2023-01-07T13:06:34.745Z,2.60
2023-01-07T13:09:48.114Z,2.60
2023-01-07T13:12:47.631Z,2.40
2023-01-07T13:15:40.722Z,2.50
2023-01-07T13:18:33.275Z,2.60
2023-01-07T13:21:23.579Z,2.70
2023-01-07T13:24:55.694Z,2.67
2023-01-07T13:27:55.117Z,2.75
2023-01-07T13:31:08.225Z,2.65
2023-01-07T13:34:08.898Z,2.83
2023-01-07T13:37:12.800Z,2.50
2023-01-07T13:40:04.591Z,2.53
2023-01-07T13:43:15.627Z,2.67
2023-01-07T13:46:15.155Z,2.70
2023-01-07T13:49:04.703Z,2.70
2023-01-07T13:51:54.439Z,2.70
2023-01-07T13:54:49.782Z,2.55
2023-01-07T13:57:42.423Z,2.53
2023-01-07T14:01:16.197Z,2.60
2023-01-07T14:04:07.233Z,2.65
2023-01-07T14:07:02.122Z,2.15
2023-01-07T14:09:58.254Z,2.88
2023-01-07T14:13:21.869Z,2.58
2023-01-07T14:16:42.328Z,2.42
2023-01-07T14:20:05.840Z,2.30
2023-01-07T14:22:54.989Z,2.53
2023-01-07T14:26:06.357Z,2.50
2023-01-07T14:29:17.368Z,2.60
2023-01-07T14:32:33.891Z,2.40
2023-01-07T14:35:27.041Z,2.47
2023-01-07T14:38:31.532Z,2.60
2023-01-07T14:41:21.520Z,2.20
2023-01-07T14:44:29.729Z,2.40
2023-01-07T14:47:44.685Z,2.50
2023-01-07T14:50:52.641Z,2.50
2023-01-07T14:54:02.383Z,2.70
2023-01-07T14:57:03.105Z,2.25
2023-01-07T15:00:07.948Z,2.60
2023-01-07T15:03:23.561Z,2.22
2023-01-07T15:06:36.779Z,2.35
2023-01-07T15:10:02.542Z,2.57
2023-01-07T15:13:14.448Z,3.00
2023-01-07T15:16:08.386Z,2.60
2023-01-07T15:18:58.806Z,2.90
2023-01-07T15:22:13.197Z,2.53
2023-01-07T15:25:18.427Z,2.60
2023-01-07T15:28:37.454Z,2.35
2023-01-07T15:31:39.990Z,2.58
2023-01-07T15:34:33.541Z,2.58
2023-01-07T15:37:23.246Z,2.72
2023-01-07T15:40:18.920Z,2.92
2023-01-07T15:43:24.452Z,2.80
2023-01-07T15:46:16.261Z,2.80
2023-01-07T15:49:16.170Z,2.60
2023-01-07T15:52:24.478Z,2.83
2023-01-07T15:55:29.171Z,2.47
2023-01-07T15:58:22.498Z,2.60
2023-01-07T16:04:08.733Z,2.85
2023-01-07T16:06:59.566Z,2.50
2023-01-07T16:09:48.980Z,2.20
2023-01-07T16:12:39.992Z,2.20
2023-01-07T16:15:37.575Z,2.30
2023-01-07T16:18:26.747Z,2.20
2023-01-07T16:21:16.253Z,2.38
2023-01-07T16:24:06.577Z,2.22
2023-01-07T16:27:05.403Z,2.20
2023-01-07T16:29:59.178Z,2.30
2023-01-07T16:32:49.032Z,2.20
2023-01-07T16:35:40.749Z,2.00
2023-01-07T16:38:30.349Z,2.47
2023-01-07T16:41:30.679Z,2.13
2023-01-07T16:44:46.108Z,2.33
2023-01-07T16:47:35.983Z,2.15
2023-01-07T16:50:25.319Z,2.00
2023-01-07T16:53:27.120Z,2.30
2023-01-07T16:56:18.554Z,2.20
2023-01-07T16:59:16.707Z,2.35
2023-01-07T17:02:41.953Z,2.22
2023-01-07T17:05:36.689Z,2.00
2023-01-07T17:08:26.203Z,2.17
2023-01-07T17:11:28.836Z,2.10
2023-01-07T17:14:38.021Z,2.10
2023-01-07T17:17:34.595Z,2.13
2023-01-07T17:20:24.071Z,2.03
2023-01-07T17:23:28.548Z,2.10
2023-01-07T17:26:26.418Z,2.20
2023-01-07T17:29:19.978Z,2.05
2023-01-07T17:32:10.859Z,2.35
2023-01-07T17:35:05.342Z,2.10
2023-01-07T17:37:57.594Z,2.38
2023-01-07T17:40:47.187Z,2.30
2023-01-07T17:43:38.554Z,2.10
2023-01-07T17:46:27.902Z,2.20
2023-01-07T17:49:17.291Z,2.38
2023-01-07T17:52:06.681Z,2.35
2023-01-07T17:54:56.121Z,2.30
2023-01-07T17:57:45.485Z,2.00
2023-01-07T18:00:36.992Z,2.10
2023-01-07T18:03:26.804Z,2.28
2023-01-07T18:06:25.518Z,2.10
2023-01-07T18:09:14.880Z,2.30
2023-01-07T18:12:22.656Z,2.50
2023-01-07T18:15:26.641Z,2.08
2023-01-07T18:18:16.143Z,2.53
2023-01-07T18:21:05.704Z,2.15
2023-01-07T18:23:54.871Z,2.50
2023-01-07T18:26:44.559Z,2.22
2023-01-07T18:29:33.898Z,2.17
2023-01-07T18:32:23.092Z,2.17
2023-01-07T18:35:13.508Z,2.28
2023-01-07T18:38:03.343Z,2.30
2023-01-07T18:40:54.933Z,2.03
2023-01-07T18:43:44.291Z,2.22
2023-01-07T18:46:34.570Z,2.30
2023-01-07T18:49:23.984Z,2.20
2023-01-07T18:52:13.545Z,2.20
2023-01-07T18:55:02.990Z,2.00
2023-01-07T18:57:52.887Z,2.03
2023-01-07T19:00:43.268Z,2.58
2023-01-07T19:03:33.221Z,2.10
2023-01-07T19:06:22.752Z,2.03
2023-01-07T19:09:12.058Z,1.80
2023-01-07T19:12:01.340Z,2.15
2023-01-07T19:14:50.589Z,1.90
2023-01-07T19:17:39.997Z,2.05
2023-01-07T19:20:29.414Z,2.30
2023-01-07T19:23:23.313Z,2.00
2023-01-07T19:26:15.261Z,2.08
2023-01-07T19:29:05.233Z,1.90
2023-01-07T19:31:54.599Z,2.10
2023-01-07T19:34:43.856Z,2.20
2023-01-07T19:37:33.060Z,1.98
2023-01-07T19:40:25.468Z,2.00
2023-01-07T19:43:15.079Z,2.50
2023-01-07T19:46:04.633Z,2.20
2023-01-07T19:48:54.575Z,2.70
2023-01-07T19:51:44.348Z,2.53
2023-01-07T19:54:33.807Z,2.60
2023-01-07T19:57:23.061Z,2.25
2023-01-07T20:00:13.242Z,2.35
2023-01-07T20:03:02.741Z,2.30
2023-01-07T20:05:52.274Z,2.25
2023-01-07T20:08:42.138Z,2.08
2023-01-07T20:11:31.602Z,2.13
2023-01-07T20:14:20.998Z,2.10
2023-01-07T20:17:10.425Z,2.10
2023-01-07T20:19:59.747Z,2.33
2023-01-07T20:22:49.596Z,2.15
2023-01-07T20:25:43.684Z,2.03
2023-01-07T20:28:33.132Z,2.08
2023-01-07T20:31:24.373Z,2.10
2023-01-07T20:34:14.078Z,2.20
2023-01-07T20:37:03.448Z,2.10
2023-01-07T20:39:52.794Z,2.20
2023-01-07T20:42:42.087Z,2.10
2023-01-07T20:45:31.350Z,2.17
2023-01-07T20:48:20.649Z,2.40
2023-01-07T20:51:11.013Z,2.30
2023-01-07T20:54:00.469Z,2.40
2023-01-07T20:56:52.801Z,2.38
2023-01-07T20:59:45.289Z,2.60
2023-01-07T21:02:35.866Z,2.30
2023-01-07T21:05:28.317Z,2.42
2023-01-07T21:08:18.202Z,2.42
2023-01-07T21:11:16.644Z,2.15
2023-01-07T21:14:07.145Z,2.38
2023-01-07T21:16:56.357Z,3.38
2023-01-07T21:19:45.666Z,5.40
2023-01-07T21:22:39.803Z,6.40
2023-01-07T21:25:29.920Z,4.75
2023-01-07T21:28:19.215Z,4.30
2023-01-07T21:31:12.432Z,5.10
2023-01-07T21:34:03.393Z,5.00
2023-01-07T21:36:52.644Z,2.35
2023-01-07T21:39:42.367Z,5.13
2023-01-07T21:42:36.259Z,4.57
2023-01-07T21:45:25.516Z,5.10
2023-01-07T21:48:14.752Z,5.65
2023-01-07T21:51:30.329Z,2.72
2023-01-07T21:54:20.047Z,4.97
2023-01-07T21:57:09.396Z,4.60
2023-01-07T21:59:58.725Z,5.20
2023-01-07T22:02:48.182Z,5.53
2023-01-07T22:05:37.433Z,2.95
2023-01-07T22:08:26.877Z,5.20
2023-01-07T22:11:18.362Z,4.75
2023-01-07T22:14:07.673Z,3.22
2023-01-07T22:16:56.908Z,3.40
2023-01-07T22:19:46.139Z,3.30
2023-01-07T22:22:35.491Z,4.00
2023-01-07T22:25:31.106Z,3.22
2023-01-07T22:28:24.332Z,3.00
2023-01-07T22:34:07.971Z,3.40
2023-01-07T22:37:09.383Z,2.72
2023-01-07T22:40:03.658Z,2.67
2023-01-07T22:42:59.518Z,2.97
2023-01-07T22:45:57.519Z,3.20
2023-01-07T22:48:47.588Z,2.90
2023-01-07T22:51:42.433Z,2.60
2023-01-07T22:54:32.621Z,2.97
2023-01-07T22:57:22.154Z,3.00
2023-01-07T23:00:37.238Z,2.92
2023-01-07T23:03:27.110Z,2.80
2023-01-07T23:06:17.521Z,3.03
2023-01-07T23:09:07.208Z,3.08
2023-01-07T23:12:00.415Z,2.80
2023-01-07T23:17:38.434Z,5.25
2023-01-07T23:20:27.863Z,5.43
2023-01-07T23:23:17.048Z,2.40
2023-01-07T23:26:06.353Z,4.22
2023-01-07T23:28:55.860Z,2.97
2023-01-07T23:31:45.681Z,2.92
2023-01-07T23:34:35.753Z,2.85
2023-01-07T23:37:25.129Z,2.97
2023-01-07T23:40:14.554Z,2.88
2023-01-07T23:43:04.869Z,2.70
2023-01-07T23:45:54.220Z,2.90
2023-01-07T23:48:43.875Z,2.70
2023-01-07T23:51:33.217Z,2.85
2023-01-07T23:54:23.803Z,2.90
2023-01-07T23:57:13.447Z,2.75
